Time;durP1;ratioP1;P1;durP2;ratioP2;P2;SDS_P1;SDS_P2;PMS_P1;PMS_P2;Temp;Humidity;BMP_temperature;BMP_pressure;BME280_temperature;BME280_humidity;BME280_pressure;Samples;Min_cycle;Max_cycle;Signal;HPM_P1;HPM_P2
2022/08/21 00:00:28;;;;;;;8.43;5.10;;;18.80;70.30;;;;;;5033573;28;20017;-26
2022/08/21 00:03:01;;;;;;;6.20;4.00;;;18.80;70.40;;;;;;5033458;28;20471;-27
2022/08/21 00:05:28;;;;;;;4.50;2.93;;;18.70;70.50;;;;;;5033173;28;20100;-28
2022/08/21 00:07:54;;;;;;;3.58;2.65;;;18.70;70.50;;;;;;5032959;28;20080;-26
2022/08/21 00:10:20;;;;;;;3.47;2.40;;;18.70;70.50;;;;;;5033214;28;20021;-27
2022/08/21 00:12:47;;;;;;;5.18;2.10;;;18.70;70.60;;;;;;5033323;28;20468;-28
2022/08/21 00:15:16;;;;;;;4.40;2.33;;;18.70;70.70;;;;;;5031713;28;20032;-29
2022/08/21 00:17:42;;;;;;;4.00;2.45;;;18.70;70.80;;;;;;5033042;28;20490;-27
2022/08/21 00:20:13;;;;;;;4.78;2.72;;;18.60;70.80;;;;;;5031645;28;20104;-27
2022/08/21 00:22:39;;;;;;;3.63;2.30;;;18.60;70.80;;;;;;5031776;28;20090;-29
2022/08/21 00:25:06;;;;;;;3.13;2.30;;;18.60;70.90;;;;;;5032818;28;20036;-26
2022/08/21 00:27:32;;;;;;;4.75;2.70;;;18.60;70.90;;;;;;5032915;28;20037;-26
2022/08/21 00:29:58;;;;;;;4.75;2.47;;;18.50;71.00;;;;;;5033072;28;20024;-26
2022/08/21 00:32:27;;;;;;;4.30;2.50;;;18.50;71.10;;;;;;5032852;28;20033;-30
2022/08/21 00:34:53;;;;;;;4.22;2.40;;;18.50;71.20;;;;;;5032899;28;20030;-26
2022/08/21 00:37:19;;;;;;;4.75;2.78;;;18.50;71.30;;;;;;5032744;28;20060;-27
2022/08/21 00:39:45;;;;;;;3.25;2.20;;;18.50;71.30;;;;;;5032657;28;20517;-30
2022/08/21 00:42:14;;;;;;;4.57;2.30;;;18.50;71.30;;;;;;5032774;28;20018;-25
2022/08/21 00:44:42;;;;;;;3.80;2.42;;;18.50;71.40;;;;;;5033235;28;20474;-26
2022/08/21 00:47:08;;;;;;;6.00;2.40;;;18.40;71.50;;;;;;5032636;28;20101;-25
2022/08/21 00:49:33;;;;;;;4.78;2.50;;;18.40;71.50;;;;;;5036031;28;20029;-26
2022/08/21 00:52:00;;;;;;;6.40;3.90;;;18.40;71.50;;;;;;5036717;28;20029;-26
2022/08/21 00:54:29;;;;;;;5.00;2.88;;;18.40;71.60;;;;;;5036664;28;20112;-26
2022/08/21 00:57:00;;;;;;;3.35;2.55;;;18.40;71.60;;;;;;5036888;28;20441;-28
2022/08/21 00:59:27;;;;;;;4.47;2.53;;;18.30;71.60;;;;;;5035417;28;20044;-25
2022/08/21 01:01:53;;;;;;;5.28;2.85;;;18.30;71.70;;;;;;5036509;28;20366;-30
2022/08/21 01:04:20;;;;;;;3.97;2.50;;;18.30;71.80;;;;;;5036843;28;20431;-28
2022/08/21 01:06:46;;;;;;;3.80;2.53;;;18.30;71.90;;;;;;5036357;28;20049;-26
2022/08/21 01:09:12;;;;;;;4.95;2.17;;;18.30;71.90;;;;;;5036713;28;20029;-27
2022/08/21 01:11:39;;;;;;;4.68;2.63;;;18.20;71.90;;;;;;5036499;28;20064;-33
2022/08/21 01:14:05;;;;;;;5.85;2.60;;;18.20;72.00;;;;;;5036295;28;20033;-27
2022/08/21 01:16:32;;;;;;;5.70;2.60;;;18.20;72.00;;;;;;5036279;28;20420;-26
2022/08/21 01:18:58;;;;;;;3.55;2.30;;;18.20;72.10;;;;;;5036396;28;20484;-26
2022/08/21 01:21:26;;;;;;;2.92;2.47;;;18.20;72.10;;;;;;5036755;28;20021;-27
2022/08/21 01:23:53;;;;;;;4.35;2.47;;;18.20;72.00;;;;;;5036214;28;20026;-27
2022/08/21 01:26:26;;;;;;;3.30;2.20;;;18.20;72.00;;;;;;5036461;28;20380;-29
2022/08/21 01:29:01;;;;;;;3.97;2.42;;;18.20;72.00;;;;;;5036001;28;20424;-27
2022/08/21 01:31:28;;;;;;;3.65;2.80;;;18.20;72.60;;;;;;5036015;28;20087;-27
2022/08/21 01:33:55;;;;;;;3.28;2.42;;;18.20;72.00;;;;;;5035876;28;20021;-31
2022/08/21 01:36:21;;;;;;;4.25;2.47;;;18.20;72.00;;;;;;5036109;28;20034;-27
2022/08/21 01:38:47;;;;;;;4.07;2.42;;;18.10;72.00;;;;;;5036451;28;20056;-26
2022/08/21 01:41:14;;;;;;;4.57;2.65;;;18.10;72.00;;;;;;5035965;28;20356;-26
2022/08/21 01:43:40;;;;;;;4.72;3.00;;;18.10;72.00;;;;;;5036103;28;20064;-26
2022/08/21 01:46:06;;;;;;;3.60;2.60;;;18.10;72.10;;;;;;5035888;28;20032;-27
2022/08/21 01:48:32;;;;;;;4.18;2.42;;;18.10;72.10;;;;;;5034431;28;20034;-26
2022/08/21 01:50:58;;;;;;;4.63;2.80;;;18.10;72.10;;;;;;5036075;28;20029;-27
2022/08/21 01:53:24;;;;;;;3.92;2.50;;;18.10;72.80;;;;;;5035825;28;20018;-28
2022/08/21 01:55:49;;;;;;;4.03;2.80;;;18.10;72.20;;;;;;5035951;28;20248;-27
2022/08/21 01:58:15;;;;;;;8.32;3.80;;;18.10;72.20;;;;;;5035876;28;20022;-26
2022/08/21 02:00:41;;;;;;;5.53;3.65;;;18.00;72.20;;;;;;5034640;28;20021;-26
2022/08/21 02:03:07;;;;;;;5.07;3.00;;;18.10;72.20;;;;;;5035776;28;20481;-28
2022/08/21 02:05:32;;;;;;;4.72;2.80;;;18.00;72.20;;;;;;5035698;28;20021;-25
2022/08/21 02:07:58;;;;;;;4.70;3.00;;;18.00;72.20;;;;;;5035175;28;20041;-25
2022/08/21 02:10:27;;;;;;;5.05;3.00;;;18.00;72.20;;;;;;5035510;28;20029;-25
2022/08/21 02:12:54;;;;;;;4.70;3.20;;;18.00;72.30;;;;;;5035403;28;20021;-26
2022/08/21 02:15:19;;;;;;;3.25;2.65;;;17.90;72.30;;;;;;5035231;28;20094;-25
2022/08/21 02:17:57;;;;;;;4.15;2.65;;;17.90;72.40;;;;;;5035390;28;20025;-25
2022/08/21 02:20:44;;;;;;;5.43;2.58;;;17.90;72.40;;;;;;5035167;28;20036;-27
2022/08/21 02:23:11;;;;;;;5.50;3.20;;;17.80;72.50;;;;;;5035276;28;20022;-28
2022/08/21 02:25:37;;;;;;;4.22;3.08;;;17.80;72.50;;;;;;5035311;28;20385;-30
2022/08/21 02:28:06;;;;;;;5.13;3.42;;;17.80;72.60;;;;;;5035209;28;20029;-27
2022/08/21 02:30:37;;;;;;;3.15;2.72;;;17.80;72.70;;;;;;5035135;28;20048;-26
2022/08/21 02:33:04;;;;;;;7.75;3.40;;;17.80;72.80;;;;;;5034827;28;20033;-25
2022/08/21 02:35:29;;;;;;;5.07;3.22;;;17.80;72.70;;;;;;5035150;28;20025;-33
2022/08/21 02:37:58;;;;;;;4.75;3.25;;;17.80;72.70;;;;;;5034780;28;20500;-27
2022/08/21 02:40:28;;;;;;;4.43;3.20;;;17.80;72.80;;;;;;5034808;28;20026;-28
2022/08/21 02:42:54;;;;;;;5.13;3.40;;;17.80;72.80;;;;;;5034726;28;20377;-29
2022/08/21 02:45:20;;;;;;;5.38;3.30;;;17.80;72.80;;;;;;5034726;28;20031;-26
2022/08/21 02:47:52;;;;;;;4.30;3.15;;;17.80;72.80;;;;;;5034630;28;20033;-27
2022/08/21 02:50:21;;;;;;;4.90;3.13;;;17.80;72.80;;;;;;5034566;28;20087;-25
2022/08/21 02:52:47;;;;;;;5.05;3.10;;;17.80;72.80;;;;;;5034546;28;20024;-26
2022/08/21 02:55:13;;;;;;;7.00;3.20;;;17.80;72.80;;;;;;5034685;28;20113;-26
2022/08/21 02:57:39;;;;;;;7.80;3.90;;;17.80;72.90;;;;;;5034430;28;20412;-27
2022/08/21 03:00:06;;;;;;;5.30;3.15;;;17.80;73.00;;;;;;5034595;28;20481;-32
2022/08/21 03:02:32;;;;;;;4.97;2.97;;;17.80;73.00;;;;;;5034703;28;20052;-26
2022/08/21 03:04:58;;;;;;;5.90;3.25;;;17.80;73.00;;;;;;5034373;28;20017;-26
2022/08/21 03:07:23;;;;;;;5.80;3.28;;;17.70;73.00;;;;;;5034417;28;20418;-27
2022/08/21 03:09:49;;;;;;;6.50;3.65;;;17.70;73.00;;;;;;5032854;28;20065;-27
2022/08/21 03:12:14;;;;;;;5.38;3.17;;;17.70;73.10;;;;;;5034087;28;20033;-26
2022/08/21 03:14:40;;;;;;;4.43;3.08;;;17.70;73.20;;;;;;5034247;28;20100;-28
2022/08/21 03:17:06;;;;;;;4.55;3.45;;;17.70;73.20;;;;;;5034566;28;20045;-32
2022/08/21 03:19:32;;;;;;;4.82;3.15;;;17.60;73.10;;;;;;5034127;28;20497;-26
2022/08/21 03:21:58;;;;;;;4.68;3.28;;;17.60;73.20;;;;;;5034083;28;20112;-31
2022/08/21 03:24:24;;;;;;;4.78;3.22;;;17.60;73.30;;;;;;5033982;28;20026;-35
2022/08/21 03:26:49;;;;;;;4.63;3.08;;;17.50;73.30;;;;;;5034020;28;20018;-28
2022/08/21 03:29:15;;;;;;;5.07;3.58;;;17.50;73.40;;;;;;5034620;28;20021;-27
2022/08/21 03:31:41;;;;;;;3.70;3.28;;;17.50;73.50;;;;;;5034104;28;20080;-28
2022/08/21 03:34:06;;;;;;;7.95;3.88;;;17.50;73.60;;;;;;5034260;28;20029;-27
2022/08/21 03:36:32;;;;;;;7.10;3.33;;;17.40;73.60;;;;;;5034400;28;20025;-27
2022/08/21 03:38:58;;;;;;;5.18;3.50;;;17.40;73.60;;;;;;5033992;28;20021;-26
2022/08/21 03:41:23;;;;;;;5.47;3.55;;;17.40;73.70;;;;;;5034129;28;20020;-27
2022/08/21 03:43:49;;;;;;;4.35;3.45;;;17.40;73.80;;;;;;5032418;28;20473;-34
2022/08/21 03:46:14;;;;;;;5.53;3.45;;;17.40;73.80;;;;;;5033800;28;20495;-26
2022/08/21 03:48:40;;;;;;;8.02;3.65;;;17.30;73.90;;;;;;5032496;28;20024;-27
2022/08/21 03:51:06;;;;;;;4.65;3.90;;;17.30;74.00;;;;;;5033968;28;20458;-27
2022/08/21 03:53:32;;;;;;;6.07;3.70;;;17.30;74.00;;;;;;5033349;28;20037;-26
2022/08/21 03:55:58;;;;;;;5.13;3.58;;;17.30;74.10;;;;;;5033282;28;20048;-26
2022/08/21 03:58:27;;;;;;;5.50;3.80;;;17.30;74.30;;;;;;5033261;28;20022;-41
2022/08/21 04:00:56;;;;;;;6.95;3.80;;;17.30;74.30;;;;;;5033323;28;20381;-28
2022/08/21 04:03:22;;;;;;;5.00;3.92;;;17.30;74.40;;;;;;5033320;28;20025;-27
2022/08/21 04:05:47;;;;;;;5.60;4.05;;;17.30;74.40;;;;;;5033161;28;20037;-24
2022/08/21 04:08:14;;;;;;;4.25;3.47;;;17.30;74.40;;;;;;5033011;28;20107;-30
2022/08/21 04:10:40;;;;;;;8.25;4.18;;;17.30;74.40;;;;;;5033531;28;20120;-25
2022/08/21 04:13:07;;;;;;;6.68;4.10;;;17.30;74.50;;;;;;5033268;28;20100;-27
2022/08/21 04:15:34;;;;;;;7.43;4.15;;;17.30;74.50;;;;;;5033035;28;20538;-26
2022/08/21 04:18:00;;;;;;;7.07;3.95;;;17.20;74.50;;;;;;5032921;28;20018;-27
2022/08/21 04:20:26;;;;;;;5.47;3.92;;;17.20;74.50;;;;;;5033261;28;20018;-29
2022/08/21 04:22:52;;;;;;;7.28;4.28;;;17.20;74.50;;;;;;5032574;28;20048;-27
2022/08/21 04:25:20;;;;;;;7.00;4.35;;;17.20;74.60;;;;;;5033111;28;20025;-27
2022/08/21 04:27:46;;;;;;;5.35;4.22;;;17.20;74.60;;;;;;5033132;28;20022;-26
2022/08/21 04:30:13;;;;;;;5.40;4.50;;;17.20;74.60;;;;;;5032859;28;20113;-28
2022/08/21 04:32:46;;;;;;;6.70;4.57;;;17.20;74.70;;;;;;5032723;28;20131;-25
2022/08/21 04:35:15;;;;;;;7.15;4.47;;;17.10;74.70;;;;;;5032626;28;20078;-27
2022/08/21 04:37:41;;;;;;;6.82;4.00;;;17.10;74.70;;;;;;5033000;28;20014;-26
2022/08/21 04:40:09;;;;;;;5.70;4.25;;;17.10;74.70;;;;;;5033006;28;20021;-27
2022/08/21 04:42:44;;;;;;;5.85;3.63;;;17.10;74.80;;;;;;5032642;28;20050;-26
2022/08/21 04:45:15;;;;;;;5.50;3.90;;;17.00;74.90;;;;;;5032583;28;20039;-29
2022/08/21 04:47:40;;;;;;;4.32;3.85;;;17.00;74.90;;;;;;5032696;28;20112;-31
2022/08/21 04:50:06;;;;;;;4.72;3.55;;;17.00;75.00;;;;;;5031441;28;20147;-31
2022/08/21 04:52:32;;;;;;;7.05;3.97;;;17.00;75.10;;;;;;5032706;28;20025;-26
2022/08/21 04:54:57;;;;;;;5.75;3.90;;;17.00;75.10;;;;;;5032455;28;20033;-27
2022/08/21 04:57:23;;;;;;;9.93;4.07;;;17.00;75.10;;;;;;5032585;28;20389;-28
2022/08/21 04:59:51;;;;;;;5.13;4.00;;;17.00;75.10;;;;;;5032528;28;20104;-26
2022/08/21 05:02:17;;;;;;;5.70;3.80;;;16.90;75.10;;;;;;5032614;28;20017;-26
2022/08/21 05:04:49;;;;;;;7.82;4.07;;;16.90;75.80;;;;;;5032518;28;20033;-33
2022/08/21 05:07:20;;;;;;;7.43;3.92;;;16.90;75.30;;;;;;5032770;28;20133;-27
2022/08/21 05:09:46;;;;;;;8.63;4.18;;;16.90;75.30;;;;;;5031266;28;20064;-29
2022/08/21 05:12:12;;;;;;;5.65;4.10;;;16.90;75.40;;;;;;5032361;28;20022;-28
2022/08/21 05:14:38;;;;;;;6.53;4.25;;;16.90;75.40;;;;;;5032435;28;20021;-30
2022/08/21 05:17:04;;;;;;;5.30;4.28;;;16.90;75.40;;;;;;5032888;28;20151;-26
2022/08/21 05:19:30;;;;;;;7.55;4.03;;;17.00;75.50;;;;;;5032674;28;20063;-24
2022/08/21 05:21:56;;;;;;;6.15;3.85;;;17.00;75.50;;;;;;5033007;28;20104;-25
2022/08/21 05:24:21;;;;;;;4.75;3.67;;;17.00;75.40;;;;;;5033008;28;20022;-25
2022/08/21 05:26:47;;;;;;;6.93;3.85;;;17.00;75.40;;;;;;5032601;28;20032;-26
2022/08/21 05:29:16;;;;;;;4.70;3.72;;;17.00;75.40;;;;;;5032634;28;20385;-26
2022/08/21 05:31:42;;;;;;;4.75;3.80;;;17.10;75.30;;;;;;5032940;28;20034;-28
2022/08/21 05:34:07;;;;;;;5.65;3.53;;;17.00;75.20;;;;;;5032689;28;20021;-31
2022/08/21 05:36:33;;;;;;;4.57;3.78;;;17.10;75.20;;;;;;5036041;28;20017;-28
2022/08/21 05:38:59;;;;;;;5.40;3.55;;;17.10;75.10;;;;;;5035275;28;20374;-27
2022/08/21 05:41:24;;;;;;;5.57;4.00;;;17.20;75.20;;;;;;5036274;28;20026;-26
2022/08/21 05:43:50;;;;;;;5.53;4.28;;;17.20;75.10;;;;;;5036357;28;20105;-26
2022/08/21 05:46:16;;;;;;;6.28;4.25;;;17.20;75.10;;;;;;5036199;28;20049;-25
2022/08/21 05:48:41;;;;;;;6.18;4.80;;;17.30;75.10;;;;;;5036148;28;20075;-26
2022/08/21 05:51:10;;;;;;;7.47;5.28;;;17.30;75.10;;;;;;5036239;28;20030;-26
2022/08/21 05:53:36;;;;;;;7.20;5.20;;;17.40;75.20;;;;;;5036114;28;20079;-29
2022/08/21 05:56:03;;;;;;;7.70;5.30;;;17.40;75.10;;;;;;5036478;28;20032;-26
2022/08/21 05:58:30;;;;;;;6.75;4.63;;;17.50;75.10;;;;;;5035998;28;20068;-26
2022/08/21 06:00:57;;;;;;;7.78;4.57;;;17.50;75.20;;;;;;5035935;28;20584;-28
2022/08/21 06:03:26;;;;;;;5.88;4.82;;;17.50;75.10;;;;;;5036039;28;20116;-27
2022/08/21 06:05:52;;;;;;;5.03;4.43;;;17.50;75.10;;;;;;5036692;28;20461;-26
2022/08/21 06:08:19;;;;;;;7.43;5.53;;;17.50;75.10;;;;;;5035621;28;20095;-27
2022/08/21 06:10:45;;;;;;;8.70;5.97;;;17.50;75.20;;;;;;5035972;28;20021;-26
2022/08/21 06:13:11;;;;;;;5.97;4.93;;;17.50;75.90;;;;;;5035825;28;20022;-33
2022/08/21 06:15:37;;;;;;;8.50;5.47;;;17.50;75.30;;;;;;5035913;28;20025;-26
2022/08/21 06:18:03;;;;;;;7.30;5.50;;;17.60;75.30;;;;;;5035552;28;20026;-28
2022/08/21 06:20:29;;;;;;;6.70;5.32;;;17.60;75.40;;;;;;5034406;28;20029;-26
2022/08/21 06:22:55;;;;;;;6.78;5.72;;;17.50;75.30;;;;;;5035818;28;20055;-29
2022/08/21 06:25:21;;;;;;;5.82;4.63;;;17.60;75.30;;;;;;5034112;28;20030;-25
2022/08/21 06:27:46;;;;;;;8.13;5.18;;;17.60;75.30;;;;;;5035591;28;20022;-30
2022/08/21 06:30:13;;;;;;;7.30;4.65;;;17.60;75.20;;;;;;5035580;28;20039;-26
2022/08/21 06:32:38;;;;;;;6.45;4.85;;;17.70;75.30;;;;;;5034025;28;20024;-26
2022/08/21 06:35:05;;;;;;;7.45;4.63;;;17.70;75.20;;;;;;5035247;28;20101;-26
2022/08/21 06:37:32;;;;;;;8.55;5.18;;;17.70;75.20;;;;;;5035165;28;20083;-27
2022/08/21 06:39:57;;;;;;;7.28;4.07;;;17.70;75.10;;;;;;5035512;28;20024;-25
2022/08/21 06:42:23;;;;;;;7.32;4.68;;;17.80;75.10;;;;;;5035164;28;20419;-26
2022/08/21 06:44:49;;;;;;;5.30;4.35;;;17.80;75.10;;;;;;5035056;28;20030;-26
2022/08/21 06:47:14;;;;;;;6.38;4.90;;;17.80;75.10;;;;;;5034923;28;20009;-26
2022/08/21 06:49:40;;;;;;;9.35;5.07;;;17.90;75.10;;;;;;5035303;28;20140;-26
2022/08/21 06:52:11;;;;;;;10.88;4.93;;;17.90;75.10;;;;;;5033764;28;20014;-28
2022/08/21 06:54:38;;;;;;;8.88;5.10;;;17.90;75.10;;;;;;5035222;28;20087;-28
2022/08/21 06:57:04;;;;;;;10.45;4.70;;;17.90;75.10;;;;;;5033727;28;20025;-25
2022/08/21 06:59:31;;;;;;;7.68;5.10;;;17.90;75.20;;;;;;5034865;28;20104;-25
2022/08/21 07:01:57;;;;;;;9.27;4.80;;;17.90;75.20;;;;;;5035035;28;20480;-25
2022/08/21 07:04:23;;;;;;;8.30;4.38;;;17.90;75.30;;;;;;5034626;28;20021;-27
2022/08/21 07:06:48;;;;;;;7.57;4.70;;;18.00;75.40;;;;;;5034540;28;20490;-29
2022/08/21 07:09:14;;;;;;;8.90;4.97;;;18.00;75.40;;;;;;5034753;28;20026;-26
2022/08/21 07:11:41;;;;;;;10.10;4.75;;;18.00;75.40;;;;;;5034830;28;20021;-26
2022/08/21 07:14:06;;;;;;;9.50;4.50;;;18.00;75.50;;;;;;5034988;28;20032;-26
2022/08/21 07:16:32;;;;;;;8.40;4.65;;;18.10;75.60;;;;;;5034471;28;20034;-26
2022/08/21 07:18:57;;;;;;;8.65;5.07;;;18.10;75.50;;;;;;5034425;28;20079;-28
2022/08/21 07:21:23;;;;;;;7.85;4.75;;;18.20;75.50;;;;;;5034903;28;20040;-26
2022/08/21 07:23:51;;;;;;;8.07;4.90;;;18.20;75.40;;;;;;5034542;28;20409;-27
2022/08/21 07:26:20;;;;;;;11.15;5.15;;;18.30;75.50;;;;;;5033115;28;20017;-27
2022/08/21 07:28:47;;;;;;;7.65;4.85;;;18.30;75.50;;;;;;5034268;28;20018;-26
2022/08/21 07:31:15;;;;;;;8.30;4.10;;;18.40;75.50;;;;;;5033003;28;20053;-26
2022/08/21 07:33:41;;;;;;;9.27;4.80;;;18.40;76.10;;;;;;5034435;28;20021;-26
2022/08/21 07:36:08;;;;;;;6.43;3.63;;;18.40;75.40;;;;;;5034333;28;20025;-25
2022/08/21 07:38:34;;;;;;;5.65;3.72;;;18.50;75.40;;;;;;5034038;28;20026;-26
2022/08/21 07:41:01;;;;;;;10.80;4.55;;;18.50;75.30;;;;;;5034073;28;20021;-26
2022/08/21 07:43:28;;;;;;;9.30;4.45;;;18.60;75.30;;;;;;5034218;28;20544;-25
2022/08/21 07:45:54;;;;;;;7.32;4.20;;;18.70;75.30;;;;;;5034200;28;20026;-26
2022/08/21 07:48:23;;;;;;;5.97;4.10;;;18.70;75.20;;;;;;5034118;28;20067;-26
2022/08/21 07:50:49;;;;;;;6.63;3.95;;;18.80;75.20;;;;;;5032578;28;20022;-26
2022/08/21 07:53:15;;;;;;;9.10;4.40;;;18.80;75.00;;;;;;5033810;28;20100;-34
2022/08/21 07:55:41;;;;;;;10.00;4.88;;;19.00;75.00;;;;;;5033723;28;20152;-26
2022/08/21 07:58:07;;;;;;;6.78;3.70;;;19.10;74.90;;;;;;5033367;28;20404;-26
2022/08/21 08:00:33;;;;;;;7.43;4.15;;;19.10;74.80;;;;;;5033586;28;20032;-28
2022/08/21 08:02:59;;;;;;;9.15;4.32;;;19.20;74.90;;;;;;5033619;28;20059;-26
2022/08/21 08:05:28;;;;;;;7.72;4.03;;;19.20;74.80;;;;;;5034067;28;20029;-26
2022/08/21 08:07:53;;;;;;;7.40;3.85;;;19.20;74.90;;;;;;5033504;28;20416;-26
2022/08/21 08:10:20;;;;;;;7.38;4.05;;;19.30;74.80;;;;;;5033796;28;20021;-28
2022/08/21 08:12:45;;;;;;;8.43;4.20;;;19.30;74.90;;;;;;5033374;28;20603;-28
2022/08/21 08:15:14;;;;;;;7.40;3.92;;;19.30;75.00;;;;;;5033970;28;20104;-27
2022/08/21 08:17:40;;;;;;;7.45;3.72;;;19.40;75.00;;;;;;5033411;28;20029;-29
2022/08/21 08:20:08;;;;;;;8.25;3.97;;;19.40;74.90;;;;;;5032032;28;20022;-32
2022/08/21 08:22:35;;;;;;;7.43;4.15;;;19.50;74.80;;;;;;5033784;28;20029;-27
2022/08/21 08:25:01;;;;;;;9.73;4.20;;;19.60;74.80;;;;;;5033619;28;20026;-25
2022/08/21 08:27:27;;;;;;;6.07;3.50;;;19.70;74.80;;;;;;5033482;28;20022;-25
2022/08/21 08:29:53;;;;;;;11.13;4.60;;;19.70;74.70;;;;;;5033570;28;20029;-26
2022/08/21 08:32:19;;;;;;;10.10;3.80;;;19.80;74.70;;;;;;5033303;28;20413;-26
2022/08/21 08:34:46;;;;;;;9.10;3.92;;;19.80;74.60;;;;;;5033166;28;20029;-26
2022/08/21 08:37:12;;;;;;;9.82;3.83;;;19.90;74.60;;;;;;5033457;28;20032;-26
2022/08/21 08:39:38;;;;;;;7.95;3.72;;;20.00;74.70;;;;;;5033127;28;20033;-27
2022/08/21 08:42:13;;;;;;;6.07;3.55;;;20.00;74.50;;;;;;5033240;28;20419;-25
2022/08/21 08:44:39;;;;;;;8.73;3.72;;;20.00;74.40;;;;;;5033038;28;20032;-28
2022/08/21 08:47:05;;;;;;;8.80;3.80;;;20.10;74.40;;;;;;5033464;28;20105;-26
2022/08/21 08:49:37;;;;;;;8.85;3.75;;;20.10;74.20;;;;;;5033273;28;20049;-27
2022/08/21 08:52:27;;;;;;;8.50;3.10;;;20.20;74.10;;;;;;5033302;28;20013;-26
2022/08/21 08:55:08;;;;;;;10.35;3.67;;;20.30;73.90;;;;;;5032978;28;20037;-26
2022/08/21 08:57:37;;;;;;;7.63;3.45;;;20.40;73.90;;;;;;5033065;28;20017;-27
2022/08/21 09:00:10;;;;;;;8.43;3.42;;;20.40;73.70;;;;;;5033064;28;20045;-28
2022/08/21 09:02:38;;;;;;;10.35;3.38;;;20.50;74.20;;;;;;5033142;28;20124;-25
2022/08/21 09:05:05;;;;;;;6.82;3.40;;;20.60;73.40;;;;;;5032931;28;20074;-26
2022/08/21 09:07:39;;;;;;;9.82;3.67;;;20.70;73.20;;;;;;5032827;28;20046;-26
2022/08/21 09:10:22;;;;;;;8.50;3.22;;;20.80;72.90;;;;;;5035490;28;20055;-25
2022/08/21 09:12:57;;;;;;;6.40;3.65;;;20.90;72.60;;;;;;5037014;28;20045;-26
2022/08/21 09:16:02;;;;;;;7.93;2.95;;;20.90;73.00;;;;;;5036836;28;20031;-26
2022/08/21 09:18:47;;;;;;;6.60;2.60;;;21.00;71.80;;;;;;5036565;28;20018;-27
2022/08/21 09:22:01;;;;;;;5.47;2.20;;;21.10;71.70;;;;;;5036667;28;20021;-26
2022/08/21 09:24:42;;;;;;;6.18;2.80;;;21.20;71.40;;;;;;4982888;28;20050;-27
2022/08/21 09:27:11;;;;;;;7.53;2.40;;;21.20;71.00;;;;;;5036588;28;20025;-26
2022/08/21 09:29:43;;;;;;;6.57;2.45;;;21.30;70.80;;;;;;5035187;28;20028;-26
2022/08/21 09:32:21;;;;;;;4.72;2.38;;;21.40;70.50;;;;;;5036267;28;20049;-25
2022/08/21 09:35:00;;;;;;;4.43;1.83;;;21.50;70.10;;;;;;5036458;28;20052;-26
2022/08/21 09:37:28;;;;;;;4.95;1.80;;;21.60;70.00;;;;;;5036313;28;20367;-26
2022/08/21 09:39:55;;;;;;;5.68;1.95;;;21.70;69.60;;;;;;5036152;28;20110;-31
2022/08/21 09:42:27;;;;;;;6.65;2.03;;;21.70;69.20;;;;;;5036428;28;20512;-26
2022/08/21 09:45:10;;;;;;;6.35;2.03;;;21.80;69.10;;;;;;5036095;28;20018;-28
2022/08/21 09:47:36;;;;;;;6.85;2.10;;;21.90;68.70;;;;;;5034676;28;20032;-27
2022/08/21 09:50:16;;;;;;;3.55;2.00;;;21.90;68.60;;;;;;5036451;28;20486;-25
2022/08/21 09:52:58;;;;;;;5.63;2.00;;;22.00;68.40;;;;;;5036486;28;20027;-27
2022/08/21 09:58:15;;;;;;;5.30;1.83;;;22.10;68.10;;;;;;5036277;28;20032;-33
2022/08/21 10:00:42;;;;;;;4.00;1.52;;;22.20;67.80;;;;;;5036186;28;20404;-26
2022/08/21 10:03:11;;;;;;;6.82;1.75;;;22.30;67.40;;;;;;5035853;28;20033;-28
2022/08/21 10:05:39;;;;;;;8.07;1.98;;;22.40;66.90;;;;;;5036087;28;20032;-28
2022/08/21 10:08:05;;;;;;;6.60;1.75;;;22.50;66.40;;;;;;5035647;28;20049;-27
2022/08/21 10:10:36;;;;;;;6.47;1.90;;;22.60;66.10;;;;;;5036537;28;20057;-26
2022/08/21 10:13:24;;;;;;;6.15;1.73;;;22.70;65.80;;;;;;5036566;28;20040;-26
2022/08/21 10:15:55;;;;;;;5.68;1.60;;;22.80;65.40;;;;;;5035689;28;20025;-26
2022/08/21 10:18:30;;;;;;;4.05;1.42;;;22.90;65.10;;;;;;5035795;28;20526;-25
2022/08/21 10:21:09;;;;;;;4.13;1.38;;;23.00;64.50;;;;;;5035111;28;20033;-26
2022/08/21 10:23:56;;;;;;;4.85;1.33;;;23.10;64.10;;;;;;5035709;28;20025;-26
2022/08/21 10:26:46;;;;;;;5.45;1.50;;;23.10;63.70;;;;;;5035589;28;20033;-25
2022/08/21 10:29:22;;;;;;;2.50;1.20;;;23.20;63.60;;;;;;5035585;28;20025;-28
2022/08/21 10:32:04;;;;;;;4.57;1.48;;;23.30;63.20;;;;;;5035363;28;20037;-27
2022/08/21 10:34:52;;;;;;;5.85;1.80;;;23.30;62.80;;;;;;5035228;28;20075;-26
2022/08/21 10:37:24;;;;;;;5.57;1.48;;;23.40;62.70;;;;;;5035188;28;20029;-26
2022/08/21 10:40:08;;;;;;;4.43;1.60;;;23.40;62.60;;;;;;5035178;28;20127;-26
2022/08/21 10:42:50;;;;;;;6.05;1.50;;;23.40;61.60;;;;;;5035344;28;20064;-27
2022/08/21 10:45:48;;;;;;;3.90;1.25;;;23.50;61.60;;;;;;5035348;28;20033;-27
2022/08/21 10:48:47;;;;;;;3.20;1.48;;;23.60;61.60;;;;;;5034876;28;20036;-27
2022/08/21 10:51:42;;;;;;;5.05;1.20;;;23.70;61.20;;;;;;5034706;28;20022;-27
2022/08/21 10:54:13;;;;;;;3.22;1.20;;;23.80;60.60;;;;;;5013045;28;20129;-29
2022/08/21 10:56:41;;;;;;;5.10;1.50;;;23.80;60.10;;;;;;5034597;28;20029;-26
2022/08/21 10:59:25;;;;;;;3.65;1.23;;;23.80;59.70;;;;;;5035103;28;20473;-44
2022/08/21 11:02:08;;;;;;;5.35;1.52;;;23.80;59.40;;;;;;5034801;28;20053;-44
2022/08/21 11:04:37;;;;;;;4.97;1.75;;;23.70;59.40;;;;;;5034802;28;20381;-44
2022/08/21 11:07:18;;;;;;;3.67;1.33;;;23.70;59.00;;;;;;5035218;28;20041;-26
2022/08/21 11:09:47;;;;;;;2.15;1.13;;;23.80;58.40;;;;;;5034471;28;20025;-28
2022/08/21 11:12:26;;;;;;;3.28;1.10;;;23.80;58.30;;;;;;5033341;28;20022;-28
2022/08/21 11:15:02;;;;;;;3.80;0.98;;;23.90;58.30;;;;;;5034464;28;20037;-31
2022/08/21 11:17:38;;;;;;;2.30;1.00;;;24.00;58.40;;;;;;5034445;28;20033;-26
2022/08/21 11:20:20;;;;;;;4.53;1.27;;;24.00;58.40;;;;;;5034390;28;20049;-27
2022/08/21 11:22:49;;;;;;;3.53;1.23;;;24.00;58.10;;;;;;5033408;28;20481;-27
2022/08/21 11:25:21;;;;;;;2.42;1.25;;;24.00;58.10;;;;;;5034619;28;20109;-26
2022/08/21 11:27:54;;;;;;;3.70;1.48;;;24.10;58.30;;;;;;5034288;28;20108;-25
2022/08/21 11:30:20;;;;;;;2.70;1.17;;;24.20;58.50;;;;;;5034590;28;20079;-27
2022/08/21 11:33:05;;;;;;;2.47;1.10;;;24.30;57.90;;;;;;5033491;28;20021;-25
2022/08/21 11:35:43;;;;;;;1.95;0.88;;;24.30;57.10;;;;;;5034108;28;20029;-27
2022/08/21 11:38:39;;;;;;;3.03;1.25;;;24.40;57.20;;;;;;5034280;28;20037;-26
2022/08/21 11:41:27;;;;;;;4.68;1.00;;;24.50;56.90;;;;;;5034264;28;20048;-39
2022/08/21 11:44:01;;;;;;;2.28;1.00;;;24.70;56.70;;;;;;5033803;28;20038;-45
2022/08/21 11:46:44;;;;;;;1.20;1.00;;;24.70;56.40;;;;;;5034462;28;20034;-44
2022/08/21 11:49:35;;;;;;;2.63;1.27;;;24.80;56.30;;;;;;5033929;28;20030;-45
2022/08/21 11:52:10;;;;;;;4.88;1.45;;;24.90;56.00;;;;;;5034078;28;20483;-39
2022/08/21 11:55:00;;;;;;;2.83;1.10;;;25.00;55.40;;;;;;5034050;28;20033;-36
2022/08/21 11:57:37;;;;;;;3.28;1.30;;;25.00;55.20;;;;;;5033768;28;20029;-37
2022/08/21 12:00:26;;;;;;;4.15;1.42;;;25.00;55.40;;;;;;5032429;28;20036;-36
2022/08/21 12:02:55;;;;;;;1.92;1.05;;;25.00;55.20;;;;;;5032277;28;20033;-37
2022/08/21 12:05:36;;;;;;;2.25;1.00;;;25.10;55.20;;;;;;5033534;28;20535;-36
2022/08/21 12:08:32;;;;;;;2.13;1.02;;;25.20;55.00;;;;;;5033520;28;20501;-36
2022/08/21 12:11:07;;;;;;;4.25;1.30;;;25.20;54.80;;;;;;5027627;28;20026;-37
2022/08/21 12:13:40;;;;;;;4.03;1.15;;;25.20;54.60;;;;;;5033356;28;20033;-36
2022/08/21 12:16:10;;;;;;;2.60;1.20;;;25.30;54.60;;;;;;5016102;28;20034;-36
2022/08/21 12:18:37;;;;;;;5.05;1.48;;;25.30;54.20;;;;;;5033369;28;20021;-36
2022/08/21 12:21:26;;;;;;;3.13;1.20;;;25.30;53.70;;;;;;5033899;28;20049;-36
2022/08/21 12:24:13;;;;;;;4.50;1.50;;;25.50;53.90;;;;;;5033320;28;20061;-37
2022/08/21 12:26:57;;;;;;;3.17;1.00;;;25.60;53.60;;;;;;5033214;28;20116;-36
2022/08/21 12:29:27;;;;;;;3.40;1.13;;;25.70;53.60;;;;;;5033242;28;20083;-37
2022/08/21 12:31:58;;;;;;;3.80;1.30;;;25.70;53.40;;;;;;5034158;28;20120;-37
2022/08/21 12:34:32;;;;;;;3.28;1.27;;;25.70;53.30;;;;;;5033225;28;20433;-40
2022/08/21 12:37:05;;;;;;;4.32;1.45;;;25.70;52.90;;;;;;5033284;28;20032;-38
2022/08/21 12:39:33;;;;;;;2.17;1.10;;;25.60;52.80;;;;;;5033066;28;20504;-36
2022/08/21 12:42:23;;;;;;;3.42;1.08;;;25.60;53.00;;;;;;5033262;28;20117;-36
2022/08/21 12:44:57;;;;;;;6.57;1.20;;;25.70;52.90;;;;;;5032705;28;20333;-37
2022/08/21 12:47:33;;;;;;;2.15;1.05;;;25.80;52.60;;;;;;5033223;28;20088;-36
2022/08/21 12:50:21;;;;;;;3.40;1.20;;;26.00;52.30;;;;;;5033267;28;20083;-47
2022/08/21 12:53:00;;;;;;;3.05;1.20;;;26.10;51.60;;;;;;5032815;28;20028;-38
2022/08/21 12:55:31;;;;;;;3.30;1.45;;;26.10;51.30;;;;;;5033315;28;20034;-36
2022/08/21 12:57:57;;;;;;;4.32;1.10;;;26.20;51.40;;;;;;5033238;28;20038;-36
2022/08/21 13:00:25;;;;;;;1.75;0.95;;;26.30;51.20;;;;;;5033243;28;20390;-37
2022/08/21 13:02:52;;;;;;;3.10;1.35;;;26.30;51.00;;;;;;5031498;28;20033;-36